Time;durP1;ratioP1;P1;durP2;ratioP2;P2;SDS_P1;SDS_P2;PMS_P1;PMS_P2;Temp;Humidity;BMP_temperature;BMP_pressure;BME280_temperature;BME280_humidity;BME280_pressure;Samples;Min_cycle;Max_cycle;Signal;HPM_P1;HPM_P2
2022/03/20 00:00:05;;;;;;;9.45;5.05;;;4.50;70.20;;;;;;5114842;27;20096;-70
2022/03/20 00:02:32;;;;;;;8.68;4.65;;;4.50;70.10;;;;;;5092743;27;20044;-70
2022/03/20 00:05:00;;;;;;;11.93;5.60;;;4.40;70.30;;;;;;5118180;27;20039;-70
2022/03/20 00:07:26;;;;;;;8.20;5.35;;;4.40;70.30;;;;;;5102492;27;20657;-70
2022/03/20 00:09:52;;;;;;;10.15;4.78;;;4.40;70.40;;;;;;5068877;27;20898;-70
2022/03/20 00:12:18;;;;;;;10.83;5.40;;;4.30;70.60;;;;;;5109147;27;20081;-70
2022/03/20 00:14:44;;;;;;;11.70;5.80;;;4.30;70.20;;;;;;5089348;28;20100;-70
2022/03/20 00:17:10;;;;;;;10.88;5.25;;;4.30;70.40;;;;;;5082363;28;20362;-70
2022/03/20 00:19:37;;;;;;;10.10;5.40;;;4.20;70.50;;;;;;5096674;28;20047;-70
2022/03/20 00:22:04;;;;;;;10.00;5.18;;;4.20;70.50;;;;;;5083854;27;20039;-70
2022/03/20 00:24:29;;;;;;;7.47;5.30;;;4.20;70.70;;;;;;5123151;27;20068;-70
2022/03/20 00:26:57;;;;;;;11.47;5.07;;;4.10;70.90;;;;;;5088611;28;20578;-70
2022/03/20 00:29:26;;;;;;;11.70;5.25;;;4.10;71.00;;;;;;5092973;28;20043;-70
2022/03/20 00:31:53;;;;;;;7.55;5.03;;;4.10;71.20;;;;;;5071814;28;20106;-70
2022/03/20 00:34:19;;;;;;;8.65;5.53;;;4.00;71.20;;;;;;5098825;27;20039;-70
2022/03/20 00:36:44;;;;;;;11.00;5.27;;;4.10;71.60;;;;;;5075407;28;20042;-70
2022/03/20 00:39:10;;;;;;;9.40;5.60;;;4.10;72.00;;;;;;5093698;28;20093;-70
2022/03/20 00:41:36;;;;;;;10.77;5.88;;;4.10;71.70;;;;;;5131552;27;20115;-70
2022/03/20 00:44:02;;;;;;;9.17;5.60;;;4.10;71.90;;;;;;5109733;27;20171;-70
2022/03/20 00:46:28;;;;;;;10.23;5.70;;;4.10;71.80;;;;;;5076454;28;20036;-70
2022/03/20 00:48:54;;;;;;;12.13;5.57;;;4.10;71.50;;;;;;5106660;28;20047;-70
2022/03/20 00:51:20;;;;;;;8.32;5.28;;;4.10;71.30;;;;;;5102946;28;20488;-70
2022/03/20 00:53:46;;;;;;;8.73;5.43;;;4.10;71.30;;;;;;5095773;27;20049;-70
2022/03/20 00:56:12;;;;;;;10.45;5.53;;;4.10;71.20;;;;;;5076727;27;20066;-70
2022/03/20 00:58:39;;;;;;;11.45;5.55;;;4.00;71.40;;;;;;5108460;27;20067;-70
2022/03/20 01:01:05;;;;;;;9.60;5.30;;;4.00;71.30;;;;;;5126079;27;20042;-70
2022/03/20 01:03:31;;;;;;;12.38;5.40;;;3.90;71.30;;;;;;5110528;27;20073;-70
2022/03/20 01:05:57;;;;;;;7.50;5.03;;;3.90;71.50;;;;;;5124821;27;20485;-70
2022/03/20 01:08:24;;;;;;;11.82;5.82;;;3.90;71.60;;;;;;5128610;27;20027;-70
2022/03/20 01:10:50;;;;;;;12.38;5.25;;;3.90;71.70;;;;;;5121853;27;20039;-70
2022/03/20 01:13:16;;;;;;;9.40;5.43;;;3.80;71.80;;;;;;5089248;28;20043;-70
2022/03/20 01:15:42;;;;;;;11.87;5.83;;;3.80;71.80;;;;;;5121001;27;20047;-70
2022/03/20 01:18:08;;;;;;;10.32;5.75;;;3.80;72.00;;;;;;5089894;28;20043;-70
2022/03/20 01:20:34;;;;;;;11.45;5.68;;;3.80;71.90;;;;;;5122289;27;20062;-70
2022/03/20 01:23:00;;;;;;;12.37;5.60;;;3.70;72.20;;;;;;5099498;28;20039;-70
2022/03/20 01:25:26;;;;;;;10.05;5.45;;;3.70;72.40;;;;;;5080138;28;20043;-70
2022/03/20 01:27:52;;;;;;;9.63;5.77;;;3.60;72.40;;;;;;5089987;28;20514;-69
2022/03/20 01:30:17;;;;;;;12.83;6.23;;;3.60;72.60;;;;;;5081876;28;20031;-70
2022/03/20 01:32:43;;;;;;;11.47;6.13;;;3.60;72.50;;;;;;5062500;28;20043;-70
2022/03/20 01:35:09;;;;;;;9.37;5.67;;;3.60;72.80;;;;;;5110055;27;20035;-70
2022/03/20 01:37:36;;;;;;;10.02;6.43;;;3.50;72.70;;;;;;5106426;28;20113;-70
2022/03/20 01:40:04;;;;;;;8.95;5.90;;;3.60;72.60;;;;;;5100239;28;20070;-70
2022/03/20 01:42:29;;;;;;;8.88;6.00;;;3.60;72.50;;;;;;5101025;28;20043;-70
2022/03/20 01:44:55;;;;;;;9.97;5.97;;;3.50;72.80;;;;;;5122991;27;20050;-70
2022/03/20 01:47:21;;;;;;;11.80;6.30;;;3.40;72.80;;;;;;5105905;28;20231;-69
2022/03/20 01:49:47;;;;;;;11.40;6.30;;;3.40;73.00;;;;;;5074606;28;20093;-70
2022/03/20 01:52:14;;;;;;;10.50;5.97;;;3.40;73.00;;;;;;5107331;28;20036;-70
2022/03/20 01:54:45;;;;;;;11.32;6.50;;;3.40;73.10;;;;;;5071527;28;20543;-70
2022/03/20 01:57:22;;;;;;;15.55;6.68;;;3.30;73.30;;;;;;5099710;28;20031;-70
2022/03/20 01:59:51;;;;;;;11.77;6.43;;;3.30;73.50;;;;;;5074650;28;20119;-70
2022/03/20 02:02:18;;;;;;;11.55;6.60;;;3.30;73.60;;;;;;5103568;28;20338;-70
2022/03/20 02:04:45;;;;;;;15.98;7.38;;;3.20;74.10;;;;;;5098883;28;20031;-70
2022/03/20 02:07:11;;;;;;;13.13;7.05;;;3.10;73.80;;;;;;5101580;28;20395;-70
2022/03/20 02:09:40;;;;;;;9.48;6.40;;;3.10;74.20;;;;;;5082795;28;20054;-70
2022/03/20 02:12:06;;;;;;;11.45;6.88;;;3.00;74.00;;;;;;5094001;28;20046;-70
2022/03/20 02:14:33;;;;;;;16.13;7.35;;;3.00;74.20;;;;;;5085005;28;20305;-70
2022/03/20 02:17:01;;;;;;;16.48;8.13;;;3.00;74.00;;;;;;5098218;28;20089;-70
2022/03/20 02:19:27;;;;;;;15.85;7.45;;;3.00;74.00;;;;;;5120529;27;20040;-70
2022/03/20 02:21:54;;;;;;;12.30;7.47;;;3.10;74.10;;;;;;5094603;28;20044;-70
2022/03/20 02:24:40;;;;;;;13.02;6.72;;;3.00;74.00;;;;;;5090321;28;20082;-70
2022/03/20 02:27:22;;;;;;;13.02;7.43;;;3.10;73.90;;;;;;5117969;27;20636;-69
2022/03/20 02:29:49;;;;;;;16.23;8.00;;;3.10;73.70;;;;;;5117758;28;20035;-70
2022/03/20 02:32:17;;;;;;;13.63;7.78;;;3.00;73.60;;;;;;5091928;28;20062;-70
2022/03/20 02:34:47;;;;;;;15.93;8.05;;;3.00;73.60;;;;;;5099356;28;20047;-70
2022/03/20 02:37:14;;;;;;;12.68;8.15;;;3.00;73.50;;;;;;5083731;28;20043;-70
2022/03/20 02:39:40;;;;;;;12.60;7.50;;;3.00;73.60;;;;;;5098057;28;20043;-70
2022/03/20 02:42:07;;;;;;;12.50;7.60;;;3.00;73.40;;;;;;5098314;28;20118;-70
2022/03/20 02:44:55;;;;;;;12.38;7.65;;;3.00;73.50;;;;;;5073662;28;20086;-70
2022/03/20 02:47:23;;;;;;;14.13;7.80;;;2.90;73.20;;;;;;5097226;28;20837;-70
2022/03/20 02:50:08;;;;;;;14.77;7.93;;;3.00;73.10;;;;;;5081177;28;20107;-70
2022/03/20 02:52:49;;;;;;;16.48;8.82;;;2.90;72.90;;;;;;5101899;28;20043;-70
2022/03/20 02:55:27;;;;;;;17.08;7.50;;;2.90;73.00;;;;;;5081918;28;20062;-69
2022/03/20 02:57:55;;;;;;;14.73;8.45;;;2.90;72.90;;;;;;5075949;28;20043;-69
2022/03/20 03:00:26;;;;;;;15.38;8.43;;;2.90;73.10;;;;;;5123762;27;20093;-70
2022/03/20 03:02:54;;;;;;;14.77;8.27;;;2.90;73.00;;;;;;5090909;28;20040;-70
2022/03/20 03:05:23;;;;;;;13.13;8.23;;;2.90;72.70;;;;;;5118217;27;20035;-70
2022/03/20 03:13:50;;;;;;;13.02;8.00;;;2.90;72.70;;;;;;5099767;28;20046;-70
2022/03/20 03:16:16;;;;;;;14.13;8.43;;;2.80;72.90;;;;;;5085324;27;20051;-70
2022/03/20 03:18:46;;;;;;;13.30;8.27;;;2.70;72.80;;;;;;5090589;28;20509;-70
2022/03/20 03:21:13;;;;;;;15.50;8.02;;;2.70;72.70;;;;;;5087558;28;20482;-70
2022/03/20 03:23:39;;;;;;;15.30;8.32;;;2.70;72.90;;;;;;5098274;28;20047;-70
2022/03/20 03:26:06;;;;;;;14.27;8.40;;;2.60;72.80;;;;;;5093234;28;20051;-70
2022/03/20 03:28:36;;;;;;;15.57;8.85;;;2.60;72.90;;;;;;5099816;28;20031;-70
2022/03/20 03:31:07;;;;;;;18.02;9.40;;;2.50;73.00;;;;;;5101158;27;20342;-70
2022/03/20 03:33:34;;;;;;;17.67;8.48;;;2.50;72.90;;;;;;5123931;27;20081;-70
2022/03/20 03:36:01;;;;;;;18.08;8.35;;;2.50;73.10;;;;;;5101881;28;20260;-70
2022/03/20 03:38:35;;;;;;;13.70;9.13;;;2.60;72.90;;;;;;5109747;27;20089;-70
2022/03/20 03:41:01;;;;;;;16.00;9.23;;;2.50;72.90;;;;;;5109005;27;20082;-70
2022/03/20 03:43:28;;;;;;;15.75;8.73;;;2.50;73.20;;;;;;5098116;28;20082;-70
2022/03/20 03:45:54;;;;;;;18.92;9.35;;;2.50;72.90;;;;;;5096938;28;20042;-70
2022/03/20 03:48:20;;;;;;;18.40;9.15;;;2.50;72.80;;;;;;5080622;28;20036;-70
2022/03/20 03:50:47;;;;;;;14.15;9.07;;;2.40;73.00;;;;;;5076085;28;20171;-70
2022/03/20 03:53:14;;;;;;;16.83;9.35;;;2.40;72.90;;;;;;5115414;27;20083;-70
2022/03/20 03:55:43;;;;;;;18.27;9.73;;;2.40;72.80;;;;;;5068263;28;20128;-70
2022/03/20 03:58:13;;;;;;;17.75;9.48;;;2.40;72.80;;;;;;5102202;28;20061;-70
2022/03/20 04:00:40;;;;;;;18.88;9.75;;;2.40;72.90;;;;;;5096723;28;20122;-70
2022/03/20 04:03:06;;;;;;;17.42;10.65;;;2.40;72.70;;;;;;5098371;28;20040;-70
2022/03/20 04:05:32;;;;;;;14.60;9.90;;;2.40;72.70;;;;;;5103960;28;20040;-70
2022/03/20 04:07:58;;;;;;;15.83;9.83;;;2.30;72.60;;;;;;5093367;28;20058;-70
2022/03/20 04:10:24;;;;;;;23.75;10.10;;;2.40;72.30;;;;;;5075168;28;20047;-70
2022/03/20 04:12:50;;;;;;;16.05;10.15;;;2.30;72.50;;;;;;5093775;28;20074;-70
2022/03/20 04:15:21;;;;;;;16.80;10.00;;;2.30;72.20;;;;;;5101118;27;20587;-70
2022/03/20 04:17:47;;;;;;;16.90;10.10;;;2.20;72.30;;;;;;5123411;27;20096;-70
2022/03/20 04:20:13;;;;;;;18.38;9.73;;;2.20;72.50;;;;;;5105461;28;20610;-70
2022/03/20 04:23:42;;;;;;;20.83;10.87;;;2.20;72.40;;;;;;5080116;28;20126;-70
2022/03/20 04:25:26;;;;;;;15.68;10.18;;;2.10;72.40;;;;;;5101666;28;20398;-70
2022/03/20 04:27:56;;;;;;;21.53;11.00;;;2.10;72.20;;;;;;5090374;28;20031;-70
2022/03/20 04:30:32;;;;;;;17.60;10.73;;;2.10;72.20;;;;;;5116143;27;20078;-70
2022/03/20 04:32:58;;;;;;;17.63;11.52;;;2.10;72.30;;;;;;5121032;27;20486;-70
2022/03/20 04:35:24;;;;;;;18.65;10.98;;;2.00;72.50;;;;;;5089823;28;20039;-70
2022/03/20 04:37:54;;;;;;;19.83;11.23;;;2.00;72.70;;;;;;5096378;27;20046;-69
2022/03/20 04:40:21;;;;;;;22.15;11.40;;;1.90;72.80;;;;;;5089877;28;20487;-69
2022/03/20 04:42:47;;;;;;;17.48;11.55;;;1.90;73.00;;;;;;5100417;27;20040;-69
2022/03/20 04:45:13;;;;;;;22.52;11.75;;;1.90;73.20;;;;;;5113120;27;20031;-69
2022/03/20 04:58:40;;;;;;;17.63;11.32;;;1.80;72.60;;;;;;5124231;27;20070;-69
2022/03/20 05:01:06;;;;;;;18.30;12.20;;;1.80;72.50;;;;;;5069314;28;20039;-69
2022/03/20 05:03:34;;;;;;;24.73;12.63;;;1.80;72.40;;;;;;5102075;28;20875;-69
2022/03/20 05:06:00;;;;;;;23.65;12.40;;;1.80;72.00;;;;;;5081427;28;20044;-69
2022/03/20 05:08:26;;;;;;;19.88;11.52;;;1.80;71.60;;;;;;5083988;28;20529;-69
2022/03/20 05:13:36;;;;;;;19.08;12.77;;;1.80;71.00;;;;;;5095827;27;20495;-69
2022/03/20 05:16:02;;;;;;;22.57;12.87;;;1.90;70.60;;;;;;5087014;28;20043;-69
2022/03/20 05:18:28;;;;;;;20.27;12.47;;;1.90;70.50;;;;;;5065942;28;20277;-69
2022/03/20 05:20:54;;;;;;;20.70;12.90;;;1.90;70.30;;;;;;5074236;28;20126;-69
2022/03/20 05:23:23;;;;;;;20.80;12.50;;;1.90;70.40;;;;;;5106751;27;20522;-69
2022/03/20 05:25:49;;;;;;;19.60;12.18;;;1.90;70.30;;;;;;5084293;28;20408;-69
2022/03/20 05:28:16;;;;;;;22.20;13.03;;;1.90;70.00;;;;;;5080904;28;20047;-69
2022/03/20 05:30:43;;;;;;;20.75;12.50;;;1.90;70.10;;;;;;5092378;28;20364;-69
2022/03/20 05:33:10;;;;;;;21.45;12.55;;;1.80;70.30;;;;;;5076746;27;20476;-69
2022/03/20 05:35:37;;;;;;;22.65;13.30;;;1.80;70.00;;;;;;5106859;27;20043;-69
2022/03/20 05:38:03;;;;;;;19.83;12.57;;;1.80;69.90;;;;;;5073289;28;20046;-69
2022/03/20 05:40:29;;;;;;;24.33;12.93;;;1.80;69.80;;;;;;5124353;27;20399;-69
2022/03/20 05:42:54;;;;;;;20.93;12.60;;;1.80;69.80;;;;;;5065970;27;20385;-69
2022/03/20 05:45:20;;;;;;;20.57;11.60;;;1.80;69.90;;;;;;5131177;27;20160;-69
2022/03/20 05:47:46;;;;;;;20.40;12.83;;;1.80;69.70;;;;;;5073212;28;20728;-69
2022/03/20 05:50:12;;;;;;;20.10;12.23;;;1.80;69.60;;;;;;5085927;28;20476;-69
2022/03/20 05:52:38;;;;;;;20.93;13.10;;;1.90;69.30;;;;;;5077504;28;20115;-69
2022/03/20 05:55:05;;;;;;;22.92;12.73;;;2.00;69.10;;;;;;5125082;27;20507;-69
2022/03/20 06:00:23;;;;;;;22.23;12.52;;;1.90;69.00;;;;;;5088342;28;20043;-69
2022/03/20 06:02:49;;;;;;;22.42;13.35;;;1.90;69.10;;;;;;5067561;28;20530;-69
2022/03/20 06:05:16;;;;;;;24.10;13.60;;;1.90;69.10;;;;;;5087009;28;20032;-69
2022/03/20 06:07:44;;;;;;;20.30;13.48;;;1.80;69.30;;;;;;5094610;28;20411;-69
2022/03/20 06:10:11;;;;;;;21.55;12.95;;;1.80;69.10;;;;;;5105577;28;20066;-69
2022/03/20 06:12:38;;;;;;;20.65;13.00;;;1.80;69.50;;;;;;5109570;28;20039;-69
2022/03/20 06:15:08;;;;;;;21.30;13.60;;;1.80;69.20;;;;;;5104399;28;20087;-69
2022/03/20 06:17:47;;;;;;;19.42;12.95;;;1.80;69.20;;;;;;5068007;28;20050;-69
2022/03/20 06:20:16;;;;;;;23.25;13.23;;;1.80;69.30;;;;;;5095003;28;20063;-69
2022/03/20 06:22:43;;;;;;;24.55;14.00;;;1.90;69.20;;;;;;5096046;28;20526;-69
2022/03/20 06:25:09;;;;;;;22.77;13.63;;;2.00;68.80;;;;;;5091614;28;20100;-69
2022/03/20 06:27:50;;;;;;;20.15;12.95;;;2.00;68.90;;;;;;5079612;28;20061;-69
2022/03/20 06:30:17;;;;;;;27.98;15.00;;;2.00;68.60;;;;;;5128163;27;20031;-69
2022/03/20 06:32:44;;;;;;;22.20;13.95;;;2.00;68.50;;;;;;5131411;27;20043;-69
2022/03/20 06:35:11;;;;;;;22.25;13.00;;;2.10;68.50;;;;;;5095340;27;20035;-69
2022/03/20 06:37:44;;;;;;;22.10;13.30;;;2.10;68.30;;;;;;5103404;27;20499;-69
2022/03/20 06:40:12;;;;;;;25.75;14.10;;;2.20;68.00;;;;;;5098928;28;20067;-69
2022/03/20 06:42:38;;;;;;;20.83;14.30;;;2.30;67.50;;;;;;5090794;27;20035;-69
2022/03/20 06:45:07;;;;;;;20.40;13.60;;;2.30;67.50;;;;;;5108465;27;20038;-69
2022/03/20 06:47:33;;;;;;;21.65;14.05;;;2.40;67.30;;;;;;5093733;28;20557;-69
2022/03/20 06:49:59;;;;;;;20.92;13.65;;;2.30;67.60;;;;;;5075531;27;20035;-69
2022/03/20 06:52:28;;;;;;;22.08;14.00;;;2.40;67.50;;;;;;5125002;27;20036;-69
2022/03/20 06:54:56;;;;;;;21.83;14.23;;;2.50;67.00;;;;;;5102842;28;20040;-69
2022/03/20 06:57:23;;;;;;;23.88;15.02;;;2.50;66.90;;;;;;5086526;28;20036;-69
2022/03/20 06:59:49;;;;;;;27.52;15.13;;;2.50;66.80;;;;;;5092940;28;20057;-69
2022/03/20 07:02:18;;;;;;;22.05;14.35;;;2.60;66.60;;;;;;5099922;28;20492;-70
2022/03/20 07:04:48;;;;;;;23.25;14.50;;;2.70;66.30;;;;;;5085065;28;20043;-71
2022/03/20 07:07:17;;;;;;;24.38;14.70;;;2.80;66.20;;;;;;5087035;28;20660;-71
2022/03/20 07:09:43;;;;;;;23.25;14.57;;;2.70;66.90;;;;;;5096895;27;20043;-71
2022/03/20 07:12:11;;;;;;;22.65;14.45;;;2.80;66.40;;;;;;5094909;28;20043;-70
2022/03/20 07:14:38;;;;;;;24.38;14.57;;;2.80;66.20;;;;;;5087826;28;20043;-71
2022/03/20 07:17:07;;;;;;;24.45;15.38;;;2.90;66.40;;;;;;5103379;28;20117;-69
2022/03/20 07:19:35;;;;;;;26.17;15.50;;;3.00;66.40;;;;;;5090003;28;20039;-69
2022/03/20 07:22:01;;;;;;;22.05;14.70;;;3.00;66.20;;;;;;5121381;27;20112;-69
2022/03/20 07:24:27;;;;;;;24.08;15.65;;;3.00;66.10;;;;;;5085566;28;20088;-69
2022/03/20 07:29:38;;;;;;;20.70;13.82;;;3.10;66.60;;;;;;5106873;27;20054;-69
2022/03/20 07:32:06;;;;;;;22.73;15.10;;;3.20;66.30;;;;;;5073083;28;20039;-69
2022/03/20 07:34:34;;;;;;;27.17;16.05;;;3.20;66.20;;;;;;5107002;28;20043;-69
2022/03/20 07:37:00;;;;;;;23.27;15.18;;;3.30;66.10;;;;;;5073419;28;20118;-69
2022/03/20 07:39:26;;;;;;;23.67;16.73;;;3.40;65.40;;;;;;5089757;28;20038;-69
2022/03/20 07:41:51;;;;;;;23.03;15.07;;;3.40;64.90;;;;;;5104623;28;20036;-69
2022/03/20 07:44:17;;;;;;;25.20;15.73;;;3.50;64.50;;;;;;5110309;27;20075;-69
2022/03/20 07:46:43;;;;;;;26.67;15.60;;;3.60;63.90;;;;;;5101661;28;20039;-69
2022/03/20 07:49:09;;;;;;;24.83;16.27;;;3.70;63.40;;;;;;5091387;28;20051;-69
2022/03/20 07:51:35;;;;;;;22.70;15.20;;;3.80;62.60;;;;;;5097171;28;20449;-69
2022/03/20 07:54:02;;;;;;;23.30;15.32;;;3.90;61.00;;;;;;5090249;27;20043;-70
2022/03/20 07:56:30;;;;;;;24.55;15.27;;;3.90;61.30;;;;;;5072521;28;20521;-69
2022/03/20 07:58:56;;;;;;;25.95;15.88;;;3.90;61.50;;;;;;5119418;27;20047;-69
2022/03/20 08:01:22;;;;;;;22.23;15.00;;;4.00;61.40;;;;;;5106263;27;20035;-69
2022/03/20 08:03:48;;;;;;;25.70;16.00;;;4.10;60.80;;;;;;5089203;28;20529;-70
2022/03/20 08:06:15;;;;;;;24.75;16.15;;;4.10;60.80;;;;;;5104579;27;20709;-69
2022/03/20 08:08:42;;;;;;;23.00;15.23;;;4.20;61.10;;;;;;5068080;28;20043;-69
2022/03/20 08:11:08;;;;;;;22.75;15.18;;;4.20;60.30;;;;;;5087431;28;20522;-69
2022/03/20 08:13:34;;;;;;;25.08;15.30;;;4.30;60.20;;;;;;5105251;28;20047;-69
2022/03/20 08:16:00;;;;;;;24.50;15.43;;;4.40;60.50;;;;;;5099052;28;20089;-70
2022/03/20 08:18:27;;;;;;;24.92;15.95;;;4.40;60.30;;;;;;5105574;28;20051;-70
2022/03/20 08:20:53;;;;;;;24.60;15.18;;;4.50;59.90;;;;;;5104370;28;20031;-70
2022/03/20 08:23:18;;;;;;;24.35;15.88;;;4.60;60.10;;;;;;5080579;28;20050;-70
2022/03/20 08:25:44;;;;;;;26.53;15.43;;;4.60;60.10;;;;;;5094641;28;20039;-70
2022/03/20 08:28:11;;;;;;;24.83;16.13;;;4.70;58.80;;;;;;5066231;27;20040;-70
2022/03/20 08:30:38;;;;;;;24.33;16.15;;;4.80;58.30;;;;;;5103847;28;20082;-70
2022/03/20 08:33:04;;;;;;;27.10;16.95;;;4.80;58.80;;;;;;5115821;27;20058;-70
2022/03/20 08:35:29;;;;;;;26.33;16.42;;;4.90;58.40;;;;;;5114114;27;20039;-70
2022/03/20 08:37:55;;;;;;;23.60;15.97;;;5.00;57.80;;;;;;5097869;27;20044;-70
2022/03/20 08:40:23;;;;;;;24.57;16.40;;;5.00;57.80;;;;;;5059058;28;20043;-70
2022/03/20 08:42:53;;;;;;;28.13;17.27;;;5.10;57.30;;;;;;5101379;28;20119;-70
2022/03/20 08:45:21;;;;;;;26.67;16.67;;;5.20;56.90;;;;;;5078560;27;20054;-70
2022/03/20 08:47:47;;;;;;;23.67;15.13;;;5.20;57.30;;;;;;5091717;27;20058;-71
2022/03/20 08:50:14;;;;;;;24.57;16.03;;;5.30;57.00;;;;;;5109015;27;20031;-70
2022/03/20 08:52:42;;;;;;;23.58;15.82;;;5.30;56.70;;;;;;5109954;27;20035;-70
2022/03/20 08:55:11;;;;;;;26.40;16.55;;;5.40;56.50;;;;;;5110335;27;20099;-71
2022/03/20 08:57:39;;;;;;;25.48;17.15;;;5.50;56.50;;;;;;5102701;27;20067;-70
2022/03/20 09:00:09;;;;;;;26.60;17.50;;;5.50;56.20;;;;;;5091860;28;20046;-70
2022/03/20 09:02:35;;;;;;;25.15;15.80;;;5.50;55.90;;;;;;5092944;27;20062;-70
2022/03/20 09:05:01;;;;;;;26.83;17.47;;;5.60;55.40;;;;;;5092025;28;20150;-70
2022/03/20 09:07:27;;;;;;;23.27;16.57;;;5.60;55.90;;;;;;5089964;28;20126;-70
2022/03/20 09:09:52;;;;;;;25.73;17.67;;;5.70;56.10;;;;;;5074899;28;20477;-70
2022/03/20 09:12:18;;;;;;;25.80;16.87;;;5.80;55.70;;;;;;5091025;28;20039;-70
2022/03/20 09:14:45;;;;;;;25.83;17.37;;;5.90;55.40;;;;;;5090702;28;20051;-70
2022/03/20 09:19:55;;;;;;;24.95;16.77;;;6.00;54.50;;;;;;5086955;28;20593;-70
2022/03/20 09:22:21;;;;;;;28.15;17.92;;;6.10;54.10;;;;;;5070013;28;20040;-70
2022/03/20 09:24:47;;;;;;;27.80;18.27;;;6.10;55.40;;;;;;5072561;28;20042;-70
2022/03/20 09:27:12;;;;;;;28.67;17.50;;;6.30;54.50;;;;;;5092484;28;20354;-71
2022/03/20 09:29:38;;;;;;;26.10;17.60;;;6.30;53.40;;;;;;5089987;28;20318;-71
2022/03/20 09:32:04;;;;;;;25.70;17.80;;;6.40;54.40;;;;;;5088051;28;20047;-71
2022/03/20 09:34:32;;;;;;;27.05;17.80;;;6.50;54.60;;;;;;5074690;28;20035;-71
2022/03/20 09:36:58;;;;;;;26.92;17.95;;;6.60;54.10;;;;;;5087766;28;20039;-71
2022/03/20 09:39:26;;;;;;;25.27;17.57;;;6.70;53.60;;;;;;5075417;28;20061;-70
2022/03/20 09:41:54;;;;;;;26.58;17.42;;;6.70;53.10;;;;;;5074233;28;20118;-71
2022/03/20 09:44:23;;;;;;;28.00;18.27;;;6.80;52.90;;;;;;5121220;27;20042;-70
2022/03/20 09:46:49;;;;;;;25.92;17.58;;;6.80;53.20;;;;;;5120606;27;20517;-70
2022/03/20 09:49:16;;;;;;;25.90;17.90;;;6.90;52.80;;;;;;5088182;28;20027;-70
2022/03/20 09:51:43;;;;;;;26.65;18.00;;;6.90;53.30;;;;;;5089658;28;20055;-70
2022/03/20 09:54:13;;;;;;;25.13;18.20;;;7.00;52.90;;;;;;5060322;28;20046;-70
2022/03/20 09:56:40;;;;;;;27.48;17.92;;;7.10;52.10;;;;;;5118124;27;20119;-70
2022/03/20 09:59:07;;;;;;;27.25;17.67;;;7.20;52.90;;;;;;5071130;28;20039;-71
2022/03/20 10:01:34;;;;;;;29.83;18.75;;;7.30;51.30;;;;;;5072056;28;20070;-70
2022/03/20 10:04:15;;;;;;;26.13;17.98;;;7.30;50.30;;;;;;5074899;27;20047;-70
2022/03/20 10:06:42;;;;;;;28.05;17.95;;;7.40;50.00;;;;;;5075904;28;20044;-71
2022/03/20 10:09:14;;;;;;;32.53;19.05;;;7.40;49.90;;;;;;5094156;28;20043;-71
2022/03/20 10:11:51;;;;;;;30.08;18.98;;;7.40;50.20;;;;;;5120584;27;20142;-71
2022/03/20 10:14:24;;;;;;;27.30;17.27;;;7.50;49.60;;;;;;5123872;27;20054;-71
2022/03/20 10:17:14;;;;;;;27.15;17.92;;;7.50;50.10;;;;;;5092311;28;20048;-70
2022/03/20 10:19:40;;;;;;;25.20;17.80;;;7.70;49.10;;;;;;5093477;28;20436;-70
2022/03/20 10:22:11;;;;;;;24.45;18.33;;;7.70;49.60;;;;;;5096554;28;20043;-70
2022/03/20 10:24:47;;;;;;;28.80;18.67;;;7.80;48.90;;;;;;5073052;28;20071;-72
2022/03/20 10:27:13;;;;;;;25.25;17.77;;;7.80;49.40;;;;;;5120603;27;20040;-70
2022/03/20 10:29:51;;;;;;;26.85;19.40;;;7.80;49.70;;;;;;5073395;28;20784;-69
2022/03/20 10:32:17;;;;;;;27.50;18.95;;;7.90;49.80;;;;;;5103799;28;20430;-69
2022/03/20 10:35:01;;;;;;;29.67;19.25;;;8.00;50.10;;;;;;5088424;28;20079;-69
2022/03/20 10:37:48;;;;;;;28.75;19.42;;;8.10;49.30;;;;;;5086237;28;20156;-69
2022/03/20 10:40:20;;;;;;;26.20;18.00;;;8.30;49.20;;;;;;5092282;28;20031;-69
2022/03/20 10:43:11;;;;;;;26.42;18.85;;;8.30;49.70;;;;;;5087315;28;20539;-69
2022/03/20 10:46:06;;;;;;;29.05;20.30;;;8.50;49.60;;;;;;5087930;28;20655;-69
2022/03/20 10:48:34;;;;;;;26.27;18.75;;;8.70;48.30;;;;;;5045279;28;20343;-69
2022/03/20 10:51:01;;;;;;;26.25;18.63;;;8.80;48.60;;;;;;5092393;27;20068;-69
2022/03/20 10:53:27;;;;;;;28.63;19.67;;;9.00;47.90;;;;;;5102380;28;20098;-69
2022/03/20 10:55:57;;;;;;;28.43;19.07;;;9.00;47.90;;;;;;5082508;28;20179;-70
2022/03/20 10:58:24;;;;;;;26.05;19.58;;;9.10;48.00;;;;;;5097378;28;20040;-69
2022/03/20 11:00:51;;;;;;;29.17;19.17;;;9.10;47.40;;;;;;5071031;28;20061;-70
2022/03/20 11:03:22;;;;;;;25.30;18.80;;;9.20;48.00;;;;;;5095790;28;20075;-70
2022/03/20 11:05:49;;;;;;;26.40;18.73;;;9.30;48.00;;;;;;5102034;28;20571;-69
2022/03/20 11:08:15;;;;;;;28.77;19.23;;;9.30;47.40;;;;;;5095882;28;20040;-69
2022/03/20 11:10:46;;;;;;;31.17;20.03;;;9.40;45.70;;;;;;5094043;28;20040;-69
2022/03/20 11:13:17;;;;;;;27.63;19.50;;;9.40;45.60;;;;;;5086763;28;20058;-71
2022/03/20 11:15:46;;;;;;;28.67;19.42;;;9.40;45.50;;;;;;5064807;28;20059;-71
2022/03/20 11:18:15;;;;;;;30.00;21.20;;;9.50;45.50;;;;;;5088519;28;20082;-71
2022/03/20 11:20:51;;;;;;;31.45;20.45;;;9.50;46.90;;;;;;5097899;28;20042;-71
2022/03/20 11:23:18;;;;;;;28.08;20.02;;;9.60;47.00;;;;;;5084296;28;20047;-71
2022/03/20 11:25:47;;;;;;;30.70;20.08;;;9.70;45.70;;;;;;5119013;27;20143;-71
2022/03/20 11:28:14;;;;;;;31.58;20.55;;;9.80;45.50;;;;;;5070821;28;20106;-70
2022/03/20 11:30:44;;;;;;;33.42;21.65;;;9.80;45.30;;;;;;5088956;28;20024;-70
2022/03/20 11:33:10;;;;;;;29.13;19.77;;;9.90;46.00;;;;;;5090697;28;20408;-71
2022/03/20 11:35:38;;;;;;;29.05;19.90;;;10.00;44.70;;;;;;5089860;28;20035;-71
2022/03/20 11:38:17;;;;;;;29.13;19.52;;;10.00;44.60;;;;;;5097953;28;20086;-69
2022/03/20 11:41:10;;;;;;;30.05;20.50;;;10.00;45.20;;;;;;5119332;27;20043;-71
2022/03/20 11:44:00;;;;;;;28.92;19.90;;;10.10;45.00;;;;;;5098476;27;20864;-70
2022/03/20 11:46:30;;;;;;;30.27;20.42;;;10.10;43.80;;;;;;5080971;28;20050;-70
2022/03/20 11:49:17;;;;;;;30.33;20.67;;;10.20;44.80;;;;;;5096528;28;20035;-70
2022/03/20 11:52:09;;;;;;;28.33;20.40;;;10.30;44.40;;;;;;5073746;28;20039;-70
2022/03/20 11:54:40;;;;;;;31.20;22.00;;;10.30;44.40;;;;;;5122537;27;20051;-70
2022/03/20 11:57:28;;;;;;;29.58;20.05;;;10.40;45.60;;;;;;5099300;28;20380;-70
2022/03/20 12:00:08;;;;;;;29.85;20.48;;;10.60;45.20;;;;;;5096468;28;20043;-70
2022/03/20 12:02:34;;;;;;;31.55;21.35;;;10.70;44.90;;;;;;5097275;28;20075;-70
2022/03/20 12:05:08;;;;;;;30.40;21.47;;;10.70;44.70;;;;;;5091211;28;20112;-70
2022/03/20 12:07:56;;;;;;;28.90;21.15;;;10.80;44.90;;;;;;5120897;27;20091;-70
2022/03/20 12:10:48;;;;;;;30.27;20.38;;;10.80;44.30;;;;;;5108771;27;20096;-70
2022/03/20 12:13:25;;;;;;;29.45;20.20;;;10.90;43.80;;;;;;5099809;28;20067;-70
2022/03/20 12:15:52;;;;;;;30.20;20.48;;;10.90;43.60;;;;;;5106602;28;20059;-70
2022/03/20 12:18:18;;;;;;;31.48;21.60;;;10.90;42.70;;;;;;5105457;28;20570;-70
2022/03/20 12:21:02;;;;;;;30.93;21.60;;;10.90;43.20;;;;;;5085002;27;20047;-70
2022/03/20 12:23:40;;;;;;;29.38;20.38;;;10.90;43.80;;;;;;5098661;27;20044;-70
2022/03/20 12:26:26;;;;;;;31.23;21.98;;;10.90;43.70;;;;;;5081074;27;20035;-70
2022/03/20 12:28:52;;;;;;;31.23;21.05;;;11.10;42.70;;;;;;5124924;27;20081;-70
2022/03/20 12:31:28;;;;;;;29.50;21.17;;;11.10;43.50;;;;;;5090911;27;20156;-70
2022/03/20 12:34:20;;;;;;;29.48;20.52;;;11.20;43.40;;;;;;5113544;27;20277;-70
2022/03/20 12:36:46;;;;;;;29.98;20.80;;;11.20;43.20;;;;;;5096725;28;20039;-70
2022/03/20 12:39:11;;;;;;;30.03;21.10;;;11.30;42.70;;;;;;5096358;27;20561;-70
2022/03/20 12:41:37;;;;;;;30.97;21.17;;;11.30;41.90;;;;;;5089355;27;20150;-70
2022/03/20 12:44:07;;;;;;;29.67;21.27;;;11.30;42.50;;;;;;5115900;27;20048;-70
2022/03/20 12:46:41;;;;;;;29.90;21.75;;;11.40;42.70;;;;;;5075425;27;20031;-70
2022/03/20 12:49:15;;;;;;;30.35;21.50;;;11.60;42.00;;;;;;5090390;28;20111;-70
2022/03/20 12:51:42;;;;;;;30.17;22.38;;;11.70;42.40;;;;;;5121869;27;20593;-70
2022/03/20 12:54:15;;;;;;;30.30;21.95;;;11.80;42.50;;;;;;5091091;27;20514;-70
2022/03/20 12:56:55;;;;;;;31.50;21.30;;;11.80;41.10;;;;;;5083392;28;20789;-70
2022/03/20 12:59:25;;;;;;;33.53;21.73;;;12.00;42.10;;;;;;5073907;28;20071;-70
2022/03/20 13:01:50;;;;;;;29.25;21.67;;;12.10;42.20;;;;;;5060653;28;20255;-70
2022/03/20 13:04:19;;;;;;;32.10;22.43;;;12.30;42.60;;;;;;5105237;28;20047;-70
2022/03/20 13:06:45;;;;;;;30.37;22.20;;;12.50;41.30;;;;;;5122713;27;20043;-70
2022/03/20 13:09:13;;;;;;;31.30;21.57;;;12.60;40.70;;;;;;5105537;28;20301;-70
2022/03/20 13:11:48;;;;;;;28.87;22.67;;;12.50;40.10;;;;;;5123145;27;20717;-70
2022/03/20 13:14:15;;;;;;;33.57;21.90;;;12.40;41.20;;;;;;5094412;28;20677;-70